sensor_id;sensor_type;location;lat;lon;timestamp;pressure;altitude;pressure_sealevel;temperature;humidity
59513;BME280;45330;51.634;5.562;2023-02-18T00:01:08;102174.97;;;10.16;100.00
59513;BME280;45330;51.634;5.562;2023-02-18T00:03:34;102160.13;;;10.10;100.00
59513;BME280;45330;51.634;5.562;2023-02-18T00:05:59;102140.09;;;10.04;100.00
59513;BME280;45330;51.634;5.562;2023-02-18T00:08:25;102137.63;;;10.12;100.00
59513;BME280;45330;51.634;5.562;2023-02-18T00:10:50;102145.34;;;10.07;100.00
59513;BME280;45330;51.634;5.562;2023-02-18T00:13:16;102162.81;;;10.16;100.00
59513;BME280;45330;51.634;5.562;2023-02-18T00:15:41;102155.88;;;10.17;100.00
59513;BME280;45330;51.634;5.562;2023-02-18T00:18:06;102133.97;;;10.02;100.00
59513;BME280;45330;51.634;5.562;2023-02-18T00:20:32;102141.00;;;10.08;100.00
59513;BME280;45330;51.634;5.562;2023-02-18T00:23:00;102136.63;;;10.05;100.00
59513;BME280;45330;51.634;5.562;2023-02-18T00:25:25;102131.41;;;10.04;100.00
59513;BME280;45330;51.634;5.562;2023-02-18T00:27:50;102150.63;;;10.13;100.00
59513;BME280;45330;51.634;5.562;2023-02-18T00:30:16;102128.81;;;10.04;100.00
59513;BME280;45330;51.634;5.562;2023-02-18T00:32:41;102147.19;;;10.15;100.00
59513;BME280;45330;51.634;5.562;2023-02-18T00:35:07;102147.22;;;10.16;100.00
59513;BME280;45330;51.634;5.562;2023-02-18T00:37:33;102138.56;;;10.16;100.00
59513;BME280;45330;51.634;5.562;2023-02-18T00:39:58;102129.78;;;10.10;100.00
59513;BME280;45330;51.634;5.562;2023-02-18T00:42:23;102128.94;;;10.10;100.00
59513;BME280;45330;51.634;5.562;2023-02-18T00:44:49;102123.69;;;10.08;100.00
59513;BME280;45330;51.634;5.562;2023-02-18T00:47:14;102127.22;;;10.13;100.00
59513;BME280;45330;51.634;5.562;2023-02-18T00:49:40;102107.16;;;10.05;100.00
59513;BME280;45330;51.634;5.562;2023-02-18T00:52:06;102115.06;;;10.12;100.00
59513;BME280;45330;51.634;5.562;2023-02-18T00:54:32;102101.13;;;10.06;100.00
59513;BME280;45330;51.634;5.562;2023-02-18T00:56:57;102118.59;;;10.15;100.00
59513;BME280;45330;51.634;5.562;2023-02-18T00:59:22;102102.84;;;10.07;100.00
59513;BME280;45330;51.634;5.562;2023-02-18T01:01:48;102116.00;;;10.15;100.00
59513;BME280;45330;51.634;5.562;2023-02-18T01:04:13;102119.47;;;10.17;100.00
59513;BME280;45330;51.634;5.562;2023-02-18T01:06:38;102116.00;;;10.15;100.00
59513;BME280;45330;51.634;5.562;2023-02-18T01:09:04;102084.63;;;10.05;100.00
59513;BME280;45330;51.634;5.562;2023-02-18T01:11:30;102100.38;;;10.15;100.00
59513;BME280;45330;51.634;5.562;2023-02-18T01:13:56;102100.38;;;10.15;100.00
59513;BME280;45330;51.634;5.562;2023-02-18T01:16:22;102075.94;;;10.03;100.00
59513;BME280;45330;51.634;5.562;2023-02-18T01:18:47;102085.56;;;10.10;100.00
59513;BME280;45330;51.634;5.562;2023-02-18T01:21:13;102075.97;;;10.06;100.00
59513;BME280;45330;51.634;5.562;2023-02-18T01:23:39;102088.22;;;10.13;100.00
59513;BME280;45330;51.634;5.562;2023-02-18T01:26:05;102092.63;;;10.18;100.00
59513;BME280;45330;51.634;5.562;2023-02-18T01:31:52;102086.56;;;10.19;100.00
59513;BME280;45330;51.634;5.562;2023-02-18T01:34:17;102073.41;;;10.09;100.00
59513;BME280;45330;51.634;5.562;2023-02-18T01:36:43;102090.84;;;10.15;100.00
59513;BME280;45330;51.634;5.562;2023-02-18T01:39:08;102069.00;;;10.05;100.00
59513;BME280;45330;51.634;5.562;2023-02-18T01:41:33;102084.78;;;10.15;100.00
59513;BME280;45330;51.634;5.562;2023-02-18T01:44:16;102067.25;;;10.03;100.00
59513;BME280;45330;51.634;5.562;2023-02-18T01:46:42;102070.59;;;9.97;100.00
59513;BME280;45330;51.634;5.562;2023-02-18T01:49:09;102088.91;;;10.02;100.00
59513;BME280;45330;51.634;5.562;2023-02-18T01:51:39;102060.09;;;9.89;100.00
59513;BME280;45330;51.634;5.562;2023-02-18T01:54:10;102085.31;;;9.93;100.00
59513;BME280;45330;51.634;5.562;2023-02-18T01:56:44;102080.09;;;9.92;100.00
59513;BME280;45330;51.634;5.562;2023-02-18T01:59:17;102077.34;;;9.86;100.00
59513;BME280;45330;51.634;5.562;2023-02-18T02:01:44;102078.13;;;9.80;100.00
59513;BME280;45330;51.634;5.562;2023-02-18T02:04:11;102069.41;;;9.75;100.00
59513;BME280;45330;51.634;5.562;2023-02-18T02:06:37;102061.47;;;9.67;100.00
59513;BME280;45330;51.634;5.562;2023-02-18T02:09:04;102070.22;;;9.72;100.00
59513;BME280;45330;51.634;5.562;2023-02-18T02:11:53;102075.41;;;9.72;100.00
59513;BME280;45330;51.634;5.562;2023-02-18T02:23:21;102034.41;;;9.56;100.00
59513;BME280;45330;51.634;5.562;2023-02-18T02:28:34;102033.53;;;9.54;100.00
59513;BME280;45330;51.634;5.562;2023-02-18T02:31:32;102051.03;;;9.66;100.00
59513;BME280;45330;51.634;5.562;2023-02-18T02:45:32;102021.47;;;9.59;100.00
59513;BME280;45330;51.634;5.562;2023-02-18T02:48:57;102015.44;;;9.60;100.00
59513;BME280;45330;51.634;5.562;2023-02-18T02:51:17;102010.19;;;9.58;100.00
59513;BME280;45330;51.634;5.562;2023-02-18T02:53:44;101998.00;;;9.54;100.00
59513;BME280;45330;51.634;5.562;2023-02-18T02:56:15;101977.94;;;9.44;100.00
59513;BME280;45330;51.634;5.562;2023-02-18T02:58:42;101986.66;;;9.49;100.00
59513;BME280;45330;51.634;5.562;2023-02-18T03:01:40;101989.31;;;9.52;100.00
59513;BME280;45330;51.634;5.562;2023-02-18T03:04:42;101980.63;;;9.52;100.00
59513;BME280;45330;51.634;5.562;2023-02-18T03:09:52;101970.19;;;9.49;100.00
59513;BME280;45330;51.634;5.562;2023-02-18T03:12:32;101955.41;;;9.44;100.00
59513;BME280;45330;51.634;5.562;2023-02-18T03:15:10;101930.13;;;9.33;100.00
59513;BME280;45330;51.634;5.562;2023-02-18T03:17:46;101950.22;;;9.44;100.00
59513;BME280;45330;51.634;5.562;2023-02-18T03:20:22;101942.44;;;9.46;100.00
59513;BME280;45330;51.634;5.562;2023-02-18T03:22:51;101924.03;;;9.34;100.00
59513;BME280;45330;51.634;5.562;2023-02-18T03:25:18;101928.56;;;9.44;100.00
59513;BME280;45330;51.634;5.562;2023-02-18T03:27:49;101925.94;;;9.42;100.00
59513;BME280;45330;51.634;5.562;2023-02-18T03:30:41;101925.91;;;9.41;100.00
59513;BME280;45330;51.634;5.562;2023-02-18T03:33:06;101899.75;;;9.30;100.00
59513;BME280;45330;51.634;5.562;2023-02-18T03:35:35;101891.97;;;9.30;100.00
59513;BME280;45330;51.634;5.562;2023-02-18T03:38:10;101890.13;;;9.23;100.00
59513;BME280;45330;51.634;5.562;2023-02-18T03:40:37;101890.16;;;9.26;100.00
59513;BME280;45330;51.634;5.562;2023-02-18T03:43:03;101880.56;;;9.22;100.00
59513;BME280;45330;51.634;5.562;2023-02-18T03:45:28;101901.56;;;9.34;100.00
59513;BME280;45330;51.634;5.562;2023-02-18T03:47:53;101905.00;;;9.33;100.00
59513;BME280;45330;51.634;5.562;2023-02-18T03:50:19;101900.66;;;9.34;100.00
59513;BME280;45330;51.634;5.562;2023-02-18T03:52:45;101889.34;;;9.29;100.00
59513;BME280;45330;51.634;5.562;2023-02-18T03:55:10;101892.84;;;9.32;100.00
59513;BME280;45330;51.634;5.562;2023-02-18T03:57:36;101869.34;;;9.21;100.00
59513;BME280;45330;51.634;5.562;2023-02-18T04:00:03;101880.75;;;9.31;100.00
59513;BME280;45330;51.634;5.562;2023-02-18T04:02:30;101884.19;;;9.32;100.00
59513;BME280;45330;51.634;5.562;2023-02-18T04:04:55;101855.38;;;9.15;100.00
59513;BME280;45330;51.634;5.562;2023-02-18T04:07:21;101858.84;;;9.17;100.00
59513;BME280;45330;51.634;5.562;2023-02-18T04:09:46;101856.25;;;9.17;100.00
59513;BME280;45330;51.634;5.562;2023-02-18T04:12:12;101868.56;;;9.29;100.00
59513;BME280;45330;51.634;5.562;2023-02-18T04:14:37;101862.47;;;9.26;100.00
59513;BME280;45330;51.634;5.562;2023-02-18T04:17:02;101844.97;;;9.15;100.00
59513;BME280;45330;51.634;5.562;2023-02-18T04:19:28;101857.28;;;9.26;100.00
59513;BME280;45330;51.634;5.562;2023-02-18T04:21:53;101861.59;;;9.26;100.00
59513;BME280;45330;51.634;5.562;2023-02-18T04:24:18;101856.41;;;9.26;100.00
59513;BME280;45330;51.634;5.562;2023-02-18T04:26:44;101845.06;;;9.21;100.00
59513;BME280;45330;51.634;5.562;2023-02-18T04:29:09;101845.03;;;9.19;100.00
59513;BME280;45330;51.634;5.562;2023-02-18T04:31:34;101845.94;;;9.20;100.00
59513;BME280;45330;51.634;5.562;2023-02-18T04:34:00;101850.22;;;9.19;100.00
59513;BME280;45330;51.634;5.562;2023-02-18T04:36:25;101842.41;;;9.16;100.00
59513;BME280;45330;51.634;5.562;2023-02-18T04:38:51;101810.94;;;8.96;100.00
59513;BME280;45330;51.634;5.562;2023-02-18T04:41:16;101841.44;;;9.11;100.00
59513;BME280;45330;51.634;5.562;2023-02-18T04:43:41;101844.13;;;9.16;100.00
59513;BME280;45330;51.634;5.562;2023-02-18T04:46:07;101819.75;;;9.06;100.00
59513;BME280;45330;51.634;5.562;2023-02-18T04:48:32;101833.63;;;9.09;100.00
59513;BME280;45330;51.634;5.562;2023-02-18T04:50:59;101831.00;;;9.08;100.00
59513;BME280;45330;51.634;5.562;2023-02-18T04:53:24;101842.34;;;9.12;100.00
59513;BME280;45330;51.634;5.562;2023-02-18T04:55:51;101847.59;;;9.16;100.00
59513;BME280;45330;51.634;5.562;2023-02-18T04:58:18;101848.44;;;9.15;100.00
59513;BME280;45330;51.634;5.562;2023-02-18T05:00:43;101818.81;;;9.02;100.00
59513;BME280;45330;51.634;5.562;2023-02-18T05:03:09;101838.00;;;9.12;100.00
59513;BME280;45330;51.634;5.562;2023-02-18T05:05:35;101835.44;;;9.15;100.00
59513;BME280;45330;51.634;5.562;2023-02-18T05:08:00;101823.16;;;9.03;100.00
59513;BME280;45330;51.634;5.562;2023-02-18T05:10:26;101817.16;;;9.07;100.00
59513;BME280;45330;51.634;5.562;2023-02-18T05:12:51;101802.22;;;8.94;100.00
59513;BME280;45330;51.634;5.562;2023-02-18T05:15:17;101800.56;;;8.98;100.00
59513;BME280;45330;51.634;5.562;2023-02-18T05:17:42;101812.75;;;9.02;100.00
59513;BME280;45330;51.634;5.562;2023-02-18T05:20:08;101819.81;;;9.10;100.00
59513;BME280;45330;51.634;5.562;2023-02-18T05:22:33;101791.94;;;8.99;100.00
59513;BME280;45330;51.634;5.562;2023-02-18T05:24:58;101793.59;;;8.93;100.00
59513;BME280;45330;51.634;5.562;2023-02-18T05:27:24;101805.91;;;9.08;100.00
59513;BME280;45330;51.634;5.562;2023-02-18T05:29:49;101788.38;;;8.93;100.00
59513;BME280;45330;51.634;5.562;2023-02-18T05:32:15;101788.38;;;8.92;100.00
59513;BME280;45330;51.634;5.562;2023-02-18T05:34:40;101789.22;;;8.92;100.00
59513;BME280;45330;51.634;5.562;2023-02-18T05:37:06;101809.38;;;9.06;100.00
59513;BME280;45330;51.634;5.562;2023-02-18T05:39:31;101811.03;;;9.04;100.00
59513;BME280;45330;51.634;5.562;2023-02-18T05:41:56;101786.66;;;8.94;100.00
59513;BME280;45330;51.634;5.562;2023-02-18T05:44:22;101810.19;;;9.03;100.00
59513;BME280;45330;51.634;5.562;2023-02-18T05:46:59;101804.16;;;9.04;100.00
59513;BME280;45330;51.634;5.562;2023-02-18T05:49:28;101805.84;;;9.02;100.00
59513;BME280;45330;51.634;5.562;2023-02-18T05:51:53;101797.16;;;9.00;100.00
59513;BME280;45330;51.634;5.562;2023-02-18T05:54:19;101781.44;;;8.91;100.00
59513;BME280;45330;51.634;5.562;2023-02-18T05:56:45;101784.19;;;9.02;100.00
59513;BME280;45330;51.634;5.562;2023-02-18T05:59:10;101792.00;;;9.02;100.00
59513;BME280;45330;51.634;5.562;2023-02-18T06:01:36;101738.78;;;8.75;100.00
59513;BME280;45330;51.634;5.562;2023-02-18T06:04:01;101786.78;;;9.00;100.00
59513;BME280;45330;51.634;5.562;2023-02-18T06:06:26;101773.72;;;8.97;100.00
59513;BME280;45330;51.634;5.562;2023-02-18T06:08:52;101782.44;;;8.99;100.00
59513;BME280;45330;51.634;5.562;2023-02-18T06:11:17;101780.66;;;8.98;100.00
59513;BME280;45330;51.634;5.562;2023-02-18T06:13:42;101787.59;;;8.98;100.00
59513;BME280;45330;51.634;5.562;2023-02-18T06:16:08;101785.81;;;8.95;100.00
59513;BME280;45330;51.634;5.562;2023-02-18T06:18:33;101776.31;;;8.97;100.00
59513;BME280;45330;51.634;5.562;2023-02-18T06:20:59;101767.66;;;8.97;100.00
59513;BME280;45330;51.634;5.562;2023-02-18T06:23:24;101764.22;;;8.98;100.00
59513;BME280;45330;51.634;5.562;2023-02-18T06:25:50;101731.06;;;8.80;100.00
59513;BME280;45330;51.634;5.562;2023-02-18T06:28:16;101783.25;;;8.97;100.00
59513;BME280;45330;51.634;5.562;2023-02-18T06:30:41;101770.25;;;8.97;100.00
59513;BME280;45330;51.634;5.562;2023-02-18T06:33:07;101744.09;;;8.84;100.00
59513;BME280;45330;51.634;5.562;2023-02-18T06:35:32;101751.06;;;8.87;100.00
59513;BME280;45330;51.634;5.562;2023-02-18T06:37:57;101784.16;;;8.99;100.00
59513;BME280;45330;51.634;5.562;2023-02-18T06:40:23;101781.50;;;8.96;100.00
59513;BME280;45330;51.634;5.562;2023-02-18T06:42:48;101769.38;;;8.93;100.00
59513;BME280;45330;51.634;5.562;2023-02-18T06:45:14;101774.56;;;8.95;100.00
59513;BME280;45330;51.634;5.562;2023-02-18T06:47:39;101770.22;;;8.93;100.00
59513;BME280;45330;51.634;5.562;2023-02-18T06:50:05;101736.22;;;8.77;100.00
59513;BME280;45330;51.634;5.562;2023-02-18T06:52:30;101765.00;;;8.90;100.00
59513;BME280;45330;51.634;5.562;2023-02-18T06:54:57;101770.19;;;8.90;100.00
59513;BME280;45330;51.634;5.562;2023-02-18T06:57:23;101764.16;;;8.93;100.00
59513;BME280;45330;51.634;5.562;2023-02-18T06:59:48;101767.59;;;8.92;100.00
59513;BME280;45330;51.634;5.562;2023-02-18T07:02:14;101776.06;;;8.82;100.00
59513;BME280;45330;51.634;5.562;2023-02-18T07:04:39;101763.81;;;8.73;100.00
59513;BME280;45330;51.634;5.562;2023-02-18T07:07:04;101788.25;;;8.86;100.00
59513;BME280;45330;51.634;5.562;2023-02-18T07:09:30;101795.22;;;8.88;100.00
59513;BME280;45330;51.634;5.562;2023-02-18T07:11:55;101783.06;;;8.86;100.00
59513;BME280;45330;51.634;5.562;2023-02-18T07:14:21;101782.84;;;8.72;100.00
59513;BME280;45330;51.634;5.562;2023-02-18T07:16:48;101770.78;;;8.74;100.00
59513;BME280;45330;51.634;5.562;2023-02-18T07:19:13;101784.69;;;8.78;100.00
59513;BME280;45330;51.634;5.562;2023-02-18T07:21:39;101767.16;;;8.64;100.00
59513;BME280;45330;51.634;5.562;2023-02-18T07:24:04;101783.59;;;8.66;100.00
59513;BME280;45330;51.634;5.562;2023-02-18T07:26:30;101791.34;;;8.63;100.00
59513;BME280;45330;51.634;5.562;2023-02-18T07:28:55;101774.66;;;8.47;100.00
59513;BME280;45330;51.634;5.562;2023-02-18T07:31:21;101779.81;;;8.46;100.00
59513;BME280;45330;51.634;5.562;2023-02-18T07:33:46;101798.88;;;8.49;100.00
59513;BME280;45330;51.634;5.562;2023-02-18T07:36:11;101810.19;;;8.53;100.00
59513;BME280;45330;51.634;5.562;2023-02-18T07:38:37;101790.91;;;8.38;100.00
59513;BME280;45330;51.634;5.562;2023-02-18T07:41:02;101794.28;;;8.34;100.00
59513;BME280;45330;51.634;5.562;2023-02-18T07:43:28;101815.31;;;8.48;100.00
59513;BME280;45330;51.634;5.562;2023-02-18T07:45:53;101803.84;;;8.37;100.00
59513;BME280;45330;51.634;5.562;2023-02-18T07:48:18;101817.81;;;8.45;100.00
59513;BME280;45330;51.634;5.562;2023-02-18T07:50:45;101803.00;;;8.39;100.00
59513;BME280;45330;51.634;5.562;2023-02-18T07:53:12;101801.19;;;8.35;100.00
59513;BME280;45330;51.634;5.562;2023-02-18T07:55:38;101797.59;;;8.27;100.00
59513;BME280;45330;51.634;5.562;2023-02-18T07:58:23;101822.94;;;8.42;100.00
59513;BME280;45330;51.634;5.562;2023-02-18T08:00:49;101790.72;;;8.29;100.00
59513;BME280;45330;51.634;5.562;2023-02-18T08:03:17;101794.97;;;8.26;100.00
59513;BME280;45330;51.634;5.562;2023-02-18T08:05:43;101803.06;;;8.43;100.00
59513;BME280;45330;51.634;5.562;2023-02-18T08:08:12;101810.94;;;8.46;100.00
59513;BME280;45330;51.634;5.562;2023-02-18T08:10:38;101815.38;;;8.51;100.00
59513;BME280;45330;51.634;5.562;2023-02-18T08:13:04;101812.81;;;8.54;100.00
59513;BME280;45330;51.634;5.562;2023-02-18T08:15:29;101793.63;;;8.46;100.00
59513;BME280;45330;51.634;5.562;2023-02-18T08:17:54;101828.47;;;8.61;100.00
59513;BME280;45330;51.634;5.562;2023-02-18T08:20:20;101821.63;;;8.64;100.00
59513;BME280;45330;51.634;5.562;2023-02-18T08:22:45;101793.63;;;8.46;100.00
59513;BME280;45330;51.634;5.562;2023-02-18T08:25:11;101817.38;;;8.68;100.00
59513;BME280;45330;51.634;5.562;2023-02-18T08:27:36;101797.53;;;8.70;100.00
59513;BME280;45330;51.634;5.562;2023-02-18T08:30:02;101814.88;;;8.72;100.00
59513;BME280;45330;51.634;5.562;2023-02-18T08:32:27;101786.94;;;8.59;100.00
59513;BME280;45330;51.634;5.562;2023-02-18T08:34:53;101799.16;;;8.65;100.00
59513;BME280;45330;51.634;5.562;2023-02-18T08:37:19;101817.50;;;8.75;100.00
59513;BME280;45330;51.634;5.562;2023-02-18T08:39:44;101815.75;;;8.74;100.00
59513;BME280;45330;51.634;5.562;2023-02-18T08:42:09;101801.81;;;8.68;100.00
59513;BME280;45330;51.634;5.562;2023-02-18T08:44:35;101798.41;;;8.72;100.00
59513;BME280;45330;51.634;5.562;2023-02-18T08:47:00;101791.28;;;8.60;100.00
59513;BME280;45330;51.634;5.562;2023-02-18T08:49:26;101816.50;;;8.67;100.00
59513;BME280;45330;51.634;5.562;2023-02-18T08:51:51;101795.53;;;8.55;100.00
59513;BME280;45330;51.634;5.562;2023-02-18T08:54:17;101799.06;;;8.58;100.00
59513;BME280;45330;51.634;5.562;2023-02-18T08:56:42;101820.06;;;8.74;100.00
59513;BME280;45330;51.634;5.562;2023-02-18T08:59:08;101823.53;;;8.74;100.00
59513;BME280;45330;51.634;5.562;2023-02-18T09:01:34;101815.72;;;8.71;100.00
59513;BME280;45330;51.634;5.562;2023-02-18T09:03:59;101800.00;;;8.62;100.00
59513;BME280;45330;51.634;5.562;2023-02-18T09:06:25;101800.84;;;8.63;100.00
59513;BME280;45330;51.634;5.562;2023-02-18T09:08:50;101786.16;;;8.63;100.00
59513;BME280;45330;51.634;5.562;2023-02-18T09:11:16;101779.84;;;8.47;100.00
59513;BME280;45330;51.634;5.562;2023-02-18T09:13:42;101825.25;;;8.72;100.00
59513;BME280;45330;51.634;5.562;2023-02-18T09:16:13;101795.59;;;8.58;100.00
59513;BME280;45330;51.634;5.562;2023-02-18T09:18:39;101809.63;;;8.69;100.00
59513;BME280;45330;51.634;5.562;2023-02-18T09:21:07;101816.53;;;8.69;100.00
59513;BME280;45330;51.634;5.562;2023-02-18T09:23:34;101813.00;;;8.65;100.00
59513;BME280;45330;51.634;5.562;2023-02-18T09:26:04;101811.25;;;8.63;100.00
59513;BME280;45330;51.634;5.562;2023-02-18T09:28:30;101785.00;;;8.46;100.00
59513;BME280;45330;51.634;5.562;2023-02-18T09:30:55;101807.56;;;8.50;100.00
59513;BME280;45330;51.634;5.562;2023-02-18T09:33:21;101812.84;;;8.56;100.00
59513;BME280;45330;51.634;5.562;2023-02-18T09:35:46;101814.53;;;8.52;100.00
59513;BME280;45330;51.634;5.562;2023-02-18T09:38:14;101809.19;;;8.45;100.00
59513;BME280;45330;51.634;5.562;2023-02-18T09:40:49;101813.59;;;8.50;100.00
59513;BME280;45330;51.634;5.562;2023-02-18T09:43:42;101817.06;;;8.51;100.00
59513;BME280;45330;51.634;5.562;2023-02-18T09:46:36;101822.19;;;8.48;100.00
59513;BME280;45330;51.634;5.562;2023-02-18T09:49:07;101808.38;;;8.47;100.00
59513;BME280;45330;51.634;5.562;2023-02-18T09:51:37;101826.72;;;8.56;100.00
59513;BME280;45330;51.634;5.562;2023-02-18T09:54:02;101818.81;;;8.52;100.00
59513;BME280;45330;51.634;5.562;2023-02-18T09:56:31;101831.00;;;8.56;100.00
59513;BME280;45330;51.634;5.562;2023-02-18T09:59:00;101826.72;;;8.58;100.00
59513;BME280;45330;51.634;5.562;2023-02-18T10:01:33;101805.91;;;8.55;100.00
59513;BME280;45330;51.634;5.562;2023-02-18T10:04:24;101825.84;;;8.59;100.00
59513;BME280;45330;51.634;5.562;2023-02-18T10:06:52;101804.09;;;8.51;100.00
59513;BME280;45330;51.634;5.562;2023-02-18T10:11:49;101793.16;;;8.67;100.00
59513;BME280;45330;51.634;5.562;2023-02-18T10:14:15;101822.94;;;8.89;100.00
59513;BME280;45330;51.634;5.562;2023-02-18T10:16:43;101836.16;;;9.03;100.00
59513;BME280;45330;51.634;5.562;2023-02-18T10:19:22;101837.13;;;9.10;100.00
59513;BME280;45330;51.634;5.562;2023-02-18T10:21:51;101822.19;;;8.97;100.00
59513;BME280;45330;51.634;5.562;2023-02-18T10:26:46;101861.41;;;9.14;100.00
59513;BME280;45330;51.634;5.562;2023-02-18T10:29:15;101838.69;;;9.00;100.00
59513;BME280;45330;51.634;5.562;2023-02-18T10:31:44;101829.97;;;8.97;100.00
59513;BME280;45330;51.634;5.562;2023-02-18T10:34:21;101838.81;;;9.08;100.00
59513;BME280;45330;51.634;5.562;2023-02-18T10:36:57;101838.75;;;9.03;100.00
59513;BME280;45330;51.634;5.562;2023-02-18T10:47:37;101863.94;;;9.09;100.00
59513;BME280;45330;51.634;5.562;2023-02-18T10:50:30;101855.31;;;9.10;100.00
59513;BME280;45330;51.634;5.562;2023-02-18T10:53:01;101844.97;;;9.15;100.00
59513;BME280;45330;51.634;5.562;2023-02-18T10:55:41;101870.47;;;9.40;100.00
59513;BME280;45330;51.634;5.562;2023-02-18T10:58:43;101879.16;;;9.41;100.00
59513;BME280;45330;51.634;5.562;2023-02-18T11:01:15;101874.66;;;9.32;100.00
59513;BME280;45330;51.634;5.562;2023-02-18T11:03:49;101884.13;;;9.27;100.00
59513;BME280;45330;51.634;5.562;2023-02-18T11:06:30;101869.94;;;9.06;100.00
59513;BME280;45330;51.634;5.562;2023-02-18T11:08:57;101853.34;;;8.97;100.00
59513;BME280;45330;51.634;5.562;2023-02-18T11:11:28;101872.50;;;9.03;100.00
59513;BME280;45330;51.634;5.562;2023-02-18T11:13:55;101894.16;;;9.07;100.00
59513;BME280;45330;51.634;5.562;2023-02-18T11:16:23;101888.09;;;9.05;100.00
59513;BME280;45330;51.634;5.562;2023-02-18T11:18:48;101895.94;;;9.09;100.00
59513;BME280;45330;51.634;5.562;2023-02-18T11:21:33;101881.97;;;9.03;100.00
59513;BME280;45330;51.634;5.562;2023-02-18T11:24:07;101864.56;;;8.97;100.00
59513;BME280;45330;51.634;5.562;2023-02-18T11:26:34;101882.06;;;9.06;100.00
59513;BME280;45330;51.634;5.562;2023-02-18T11:29:14;101859.50;;;9.02;100.00
59513;BME280;45330;51.634;5.562;2023-02-18T11:31:44;101882.28;;;9.20;100.00
59513;BME280;45330;51.634;5.562;2023-02-18T11:34:26;101872.53;;;9.06;100.00
59513;BME280;45330;51.634;5.562;2023-02-18T11:36:53;101886.63;;;9.21;100.00
59513;BME280;45330;51.634;5.562;2023-02-18T11:39:25;101860.44;;;9.08;100.00
59513;BME280;45330;51.634;5.562;2023-02-18T11:42:03;101897.00;;;9.21;100.00
59513;BME280;45330;51.634;5.562;2023-02-18T11:44:34;101865.56;;;9.04;100.00
59513;BME280;45330;51.634;5.562;2023-02-18T11:47:05;101885.78;;;9.22;100.00
59513;BME280;45330;51.634;5.562;2023-02-18T11:49:43;101848.31;;;9.07;100.00
59513;BME280;45330;51.634;5.562;2023-02-18T11:52:28;101838.72;;;9.02;100.00
59513;BME280;45330;51.634;5.562;2023-02-18T11:55:03;101853.50;;;9.06;100.00
59513;BME280;45330;51.634;5.562;2023-02-18T11:57:30;101870.19;;;9.22;100.00
59513;BME280;45330;51.634;5.562;2023-02-18T11:59:58;101845.88;;;9.18;100.00
59513;BME280;45330;51.634;5.562;2023-02-18T12:02:36;101864.41;;;9.38;100.00
59513;BME280;45330;51.634;5.562;2023-02-18T12:05:19;101866.28;;;9.49;100.00
59513;BME280;45330;51.634;5.562;2023-02-18T12:07:50;101863.06;;;9.67;100.00
59513;BME280;45330;51.634;5.562;2023-02-18T12:10:50;101845.22;;;9.93;100.00
59513;BME280;45330;51.634;5.562;2023-02-18T12:13:33;101845.44;;;10.08;100.00
59513;BME280;45330;51.634;5.562;2023-02-18T12:34:23;101842.06;;;10.19;100.00
59513;BME280;45330;51.634;5.562;2023-02-18T12:37:13;101808.91;;;9.99;100.00
59513;BME280;45330;51.634;5.562;2023-02-18T12:57:47;101837.59;;;10.90;100.00
59513;BME280;45330;51.634;5.562;2023-02-18T13:06:02;101842.78;;;10.88;100.00
59513;BME280;45330;51.634;5.562;2023-02-18T13:11:18;101835.03;;;10.94;100.00
59513;BME280;45330;51.634;5.562;2023-02-18T13:14:17;101842.06;;;11.06;100.00
59513;BME280;45330;51.634;5.562;2023-02-18T13:16:48;101836.84;;;11.03;100.00
59513;BME280;45330;51.634;5.562;2023-02-18T13:21:46;101841.13;;;10.98;100.00
59513;BME280;45330;51.634;5.562;2023-02-18T13:24:17;101822.78;;;10.84;100.00
59513;BME280;45330;51.634;5.562;2023-02-18T13:26:47;101828.91;;;10.88;100.00
59513;BME280;45330;51.634;5.562;2023-02-18T13:34:53;101843.28;;;11.55;100.00
59513;BME280;45330;51.634;5.562;2023-02-18T13:37:45;101839.03;;;11.67;100.00
59513;BME280;45330;51.634;5.562;2023-02-18T13:40:25;101837.28;;;11.71;100.00
59513;BME280;45330;51.634;5.562;2023-02-18T13:42:54;101810.34;;;11.64;100.00
59513;BME280;45330;51.634;5.562;2023-02-18T13:45:39;101828.59;;;11.72;100.00
59513;BME280;45330;51.634;5.562;2023-02-18T13:48:21;101809.44;;;11.59;100.00
59513;BME280;45330;51.634;5.562;2023-02-18T13:50:47;101832.84;;;11.53;100.00
59513;BME280;45330;51.634;5.562;2023-02-18T13:53:18;101851.06;;;11.48;100.00
59513;BME280;45330;51.634;5.562;2023-02-18T13:55:55;101837.16;;;11.45;100.00
59513;BME280;45330;51.634;5.562;2023-02-18T13:58:30;101847.50;;;11.37;100.00
59513;BME280;45330;51.634;5.562;2023-02-18T14:01:03;101847.50;;;11.37;100.00
59513;BME280;45330;51.634;5.562;2023-02-18T14:05:55;101842.31;;;11.39;100.00
59513;BME280;45330;51.634;5.562;2023-02-18T14:08:32;101843.22;;;11.42;100.00
59513;BME280;45330;51.634;5.562;2023-02-18T14:11:23;101839.72;;;11.43;100.00
59513;BME280;45330;51.634;5.562;2023-02-18T14:13:54;101841.44;;;11.33;100.00
59513;BME280;45330;51.634;5.562;2023-02-18T14:16:20;101855.28;;;11.31;100.00
59513;BME280;45330;51.634;5.562;2023-02-18T14:33:40;101845.06;;;11.63;100.00
59513;BME280;45330;51.634;5.562;2023-02-18T14:41:51;101850.38;;;11.77;100.00
59513;BME280;45330;51.634;5.562;2023-02-18T14:45:04;101852.06;;;11.72;100.00
59513;BME280;45330;51.634;5.562;2023-02-18T14:48:01;101825.94;;;11.60;100.00
59513;BME280;45330;51.634;5.562;2023-02-18T14:50:33;101847.69;;;11.70;100.00
59513;BME280;45330;51.634;5.562;2023-02-18T14:53:03;101847.72;;;11.73;100.00
59513;BME280;45330;51.634;5.562;2023-02-18T14:55:33;101848.59;;;11.70;100.00
59513;BME280;45330;51.634;5.562;2023-02-18T14:58:02;101851.16;;;11.67;100.00